首页
METAR-TAF:

METAR-TAF

机场 :

卡斯尔加, 不列颠哥伦比亚, 加拿大

纬度: 49-18N, 经度: 117-38W, 海拔: 495米

当前天气观测

该预报发布于41分钟前的20:00 UTC
风速4节,风向南转南东
温度 4°C
湿度 100%
气压 1017 hPa
能見度: 8.0公里
少量云层高于300英尺
散云层高于1300英尺
多云层高于2700英尺
阴天层高于3200英尺
轻雾

METAR: CYCG 172000Z 16004KT 5SM BR FEW003 SCT013 BKN027 OVC032 04/04 A3004 RMK SF2SC2SC3SC1 SLP190

时间: 12:41 (20:41 UTC)

预报

该预报发布于2小时和3分钟前的18:38 UTC
预报有效从17日的 19点(UTC)到 18日的 01点(UTC)
风速5节,风向南转南东
能見度: 3.2公里
少量云层高于200英尺
多云层高于1000英尺
阴天层高于3000英尺
小雨, 轻雾
短暂存在
从 17日的 19点(UTC)到 18日的 01点(UTC)
能見度: 9.7公里
散云层高于1000英尺
阴天层高于3000英尺
轻雾

TAF: CYCG 171838Z 1719/1801 16005KT 2SM -RA BR FEW002 BKN010 OVC030 TEMPO 1719/1801 6SM BR SCT010 OVC030 RMK NXT FCST WILL BE ISSUED AT 181545Z

超过4000个机场的气象观测和天气预报(METAR&TAF报告)。

可查询的气象台以黄色和红色小点在地图上表示。

将鼠标移到小点上方,可查看气象台名称。

然后点击查看天气观测和预报。

如需切换地图:点击带黑十字的绿色按钮放大地图;点击带横线的绿色按钮缩小地图;或者点击绿色箭头查看邻近地区的地图。


METAR-TAF: